• Join FlightAware (Why Join?)
  • Login
  • US Flag 
02:21PM EDT


 

Airport Tracker/Info


-or-


 

Live Flight TrackerFlight Track Log ✈ N762NC ✈ 19-Oct-2013 ✈ KBNA - KATL

Flight Track Log - Related Links

Times and Time Zones

All times are in EDT time to prevent confusion due to time zone crossing. See the N762NC flight status page for this flight to view local times or setup timezone preferences in your user account.

Time Position Orientation Groundspeed Altitude Reporting Facility
EDT Latitude Longitude Course Direction KTS MPH feet Rate Location/Type
10:25AM 36.1000 -86.6833 147° Southeast 167 192 2,000  Level Nashville TRACON
10:26AM 36.0333 -86.6667 169° South 213 245 3,800 1,800 Climbing Nashville TRACON
10:27AM 35.9889 -86.6656 179° South 235 270 5,200 2,340 Climbing Memphis Center
10:28AM 35.8441 -86.4156 180° South  Level Estimated
10:28AM 35.9092 -86.6461 169° South 367 422 7,700  Level Memphis Center
10:29AM 35.7739 -86.3503 136° Southeast  Level Estimated
10:29AM 35.8469 -86.5900 144° Southeast 297 342 9,900  Level Memphis Center
10:30AM 35.7036 -86.2851 141° Southeast  Level Estimated
10:30AM 35.7822 -86.5186 138° Southeast 295 339 11,500  Level Memphis Center
10:31AM 35.6334 -86.2199 147° Southeast  Level Estimated
10:31AM 35.7069 -86.4431 141° Southeast 332 382 13,000  Level Memphis Center
10:32AM 35.6292 -86.3572 138° Southeast 361 415 15,200 2,100 Climbing Memphis Center
10:33AM 35.5531 -86.2689 137° Southeast 372 428 17,300 1,500 Climbing Memphis Center
10:34AM 35.5011 -86.2019 134° Southeast 382 440 18,000 1,080 Climbing Atlanta Center
10:35AM 35.4192 -86.1056 136° Southeast 395 455 19,300 1,800 Climbing Atlanta Center
10:36AM 35.3417 -86.0044 133° Southeast 407 468 21,600 2,280 Climbing Atlanta Center
10:37AM 35.2681 -85.9136 135° Southeast 386 444 23,900 1,440 Climbing Atlanta Center
10:38AM 35.1858 -85.8228 138° Southeast 371 427 24,500 960 Climbing Atlanta Center
10:39AM 35.1033 -85.7500 144° Southeast 371 427 25,900 1,200 Climbing Atlanta Center
10:40AM 35.0189 -85.6772 145° Southeast 366 421 26,900 960 Climbing Atlanta Center
10:41AM 34.9300 -85.6019 145° Southeast 376 433 27,900 840 Climbing Atlanta Center
10:42AM 34.8392 -85.5269 146° Southeast 390 449 28,600 -660 Climbing Atlanta Center
10:43AM 34.7442 -85.4519 147° Southeast 401 461 26,600 -2,100 Descending Atlanta Center
10:44AM 34.6469 -85.3769 148° Southeast 412 474 24,400 -2,460 Descending Atlanta Center
10:45AM 34.5536 -85.3100 149° Southeast 407 468 21,700 -2,520 Descending Atlanta Center
10:46AM 34.4603 -85.2606 156° South 383 441 19,400 -1,920 Descending Atlanta Center
10:47AM 34.3811 -85.2369 166° South 365 420 17,900 -1,920 Descending Atlanta Center
10:48AM 34.2958 -85.2056 163° South 331 381 15,600 -1,920 Descending Atlanta Center
10:49AM 34.2044 -85.1717 163° South 331 381 14,100 -840 Descending Atlanta Center
10:50AM 34.1258 -85.1028 144° Southeast 337 388 14,000 -60 Descending Atlanta Center
10:51AM 34.0575 -85.0167 134° Southeast 352 405 14,000 -660 Level Atlanta Center
10:52AM 33.9872 -84.9258 133° Southeast 360 414 12,700 -960 Descending Atlanta Center
10:53AM 33.9253 -84.8375 130° Southeast 360 414 12,100 -360 Descending Atlanta Center
10:54AM 33.8611 -84.7442 130° Southeast 360 414 12,000  Descending Atlanta Center
10:55AM 33.8072 -84.6564 126° Southeast 342 394 12,100  Climbing Atlanta Center
10:56AM 33.7639 -84.5811 125° Southeast 297 342 12,100 -780 Level Atlanta Center
10:57AM 33.7558 -84.4886 96° East 265 305 10,600 -1,500 Descending Atlanta Center
10:58AM 33.7500 -84.3500 93° East 285 328 8,800 -1,380 Descending Atlanta TRACON
10:59AM 33.7500 -84.2667 90° East 265 305 7,500 -1,200 Descending Atlanta TRACON
11:00AM 33.7333 -84.1833 104° East 259 298 6,400 -1,200 Descending Atlanta TRACON
11:01AM 33.6667 -84.1667 168° South 199 229 5,000 -1,080 Descending Atlanta TRACON
11:02AM 33.6500 -84.2167 248° West 179 206 4,200 -840 Descending Atlanta TRACON
11:03AM 33.6500 -84.2667 270° West 172 198 3,400 -960 Descending Atlanta TRACON
11:04AM 33.6500 -84.3167 270° West 173 199 2,400 -900 Descending Atlanta TRACON
11:05AM 33.6500 -84.3833 270° West 132 152 1,600 -780 Descending Atlanta TRACON